Wilmerding, Pennsylvania
Current Conditions -  °F | °C
As of 5:53 AM on Wednesday 26 Nov 2014 (Local Time) from KAGC Reporting Station
Clear Clear  
Wind Chill: 28°   Ceiling: Unl
Heat Index: 33°   Visibility: 10mi
Dew Point: 23°   Wind: 6mph
Humidity: 66%   Direction: 60°ENE
Pressure: 30.05"   Gusts: NA
Location:  40.39°N, 79.81°W
Report Text: KAGC 261053Z 06005KT 10SM CLR 01/M05 A3005 RMK AO2 SLP189 T00061050
Loading
Personal Weather Stations






























Interactive Weather Map New forecast layout! Learn more

10-Day Weather Forecast

Advertisements
Track Severe Weather on mobile